Portada
METAR-TAF:

METAR-TAF

Aeropuertos :

Aeropuerto Internacional de Túnez-Cartago

Túnez, Túnez

latitud: 36-50N, longitud: 010-14E, altitud: 3 m

Observación

El informe se hizo hace 24 minutos, a las 23:00 UTC
Viento 10 kt del oeste-noroeste, variando entre oeste y noroeste
Temperatura 24°C
Humedad 65%
Presión 1019 hPa
Visibilidad 10 km o más
Escasas nubes a una altura de 2600 ft

METAR: DTTA 242300Z 29010KT 260V320 9999 FEW026 24/17 Q1019 NOSIG

Hora: 00:24 (23:24 UTC)

Pronóstico

El informe se hizo hace 6 horas y 24 minutos, a las 17:00 UTC
Pronóstico válido del 24 a las 18 UTC al 25 a las 18 UTC
Viento 15 kt del oeste-noroeste con ráfagas de 27 kt
Visibilidad 10 km o más
Nubes dispersas a una altura de 2600 ft

TAF: DTTA 241700Z 2418/2518 30015G27KT 9999 SCT026

Observaciones y pronósticos meteorológicos de más de 4000 aeropuertos (mensajes METAR y TAF).

Los puntos amarillos y rojos representan las estaciones disponibles.

Ponga el ratón en el punto deseado para ver el nombre de la estación.

Haga clic para ver las observaciones y los pronósticos meteorológicos.

Para cambiar el mapa : haga clic en los botones verdes con una cruz de color negro para hacer un zoom, en el botón verde con un guión para alejar o en las flechas verdes para mapas adyacentes.


METAR-TAF: